createdAt,value
2022-11-16T00:01:56.675Z,100.00
2022-11-16T00:04:45.025Z,100.00
2022-11-16T00:10:22.909Z,100.00
2022-11-16T00:13:10.755Z,100.00
2022-11-16T00:15:59.560Z,100.00
2022-11-16T00:18:48.013Z,100.00
2022-11-16T00:21:36.859Z,100.00
2022-11-16T00:27:12.452Z,100.00
2022-11-16T00:32:47.144Z,100.00
2022-11-16T00:35:42.333Z,100.00
2022-11-16T00:41:20.266Z,100.00
2022-11-16T00:44:09.377Z,100.00
2022-11-16T00:46:58.768Z,100.00
2022-11-16T00:49:49.154Z,100.00
2022-11-16T00:55:23.834Z,100.00
2022-11-16T01:00:54.461Z,100.00
2022-11-16T01:03:43.382Z,100.00
2022-11-16T01:09:18.110Z,100.00
2022-11-16T01:14:53.538Z,100.00
2022-11-16T01:20:32.145Z,100.00
2022-11-16T01:26:08.093Z,100.00
2022-11-16T01:34:29.893Z,100.00
2022-11-16T01:39:58.348Z,100.00
2022-11-16T01:45:40.378Z,100.00
2022-11-16T01:51:15.721Z,100.00
2022-11-16T01:56:47.847Z,100.00
2022-11-16T02:05:26.201Z,100.00
2022-11-16T02:20:04.859Z,100.00
2022-11-16T02:25:51.310Z,100.00
2022-11-16T02:34:01.210Z,100.00
2022-11-16T02:39:38.103Z,100.00
2022-11-16T02:45:14.774Z,100.00
2022-11-16T02:50:49.052Z,100.00
2022-11-16T02:53:42.830Z,100.00
2022-11-16T02:59:22.044Z,100.00
2022-11-16T03:07:53.401Z,100.00
2022-11-16T03:13:32.290Z,100.00
2022-11-16T03:19:09.236Z,100.00
2022-11-16T03:24:42.848Z,100.00
2022-11-16T03:30:23.966Z,100.00
2022-11-16T03:36:03.394Z,100.00
2022-11-16T03:38:53.597Z,100.00
2022-11-16T03:41:42.993Z,100.00
2022-11-16T03:44:31.415Z,100.00
2022-11-16T03:47:19.948Z,100.00
2022-11-16T03:50:10.614Z,100.00
2022-11-16T03:52:58.968Z,100.00
2022-11-16T03:55:49.929Z,100.00
2022-11-16T04:01:24.191Z,100.00
2022-11-16T04:09:53.494Z,100.00
2022-11-16T04:15:49.107Z,100.00
2022-11-16T04:18:55.241Z,100.00
2022-11-16T04:27:35.654Z,100.00
2022-11-16T04:30:24.968Z,100.00
2022-11-16T04:36:20.574Z,100.00
2022-11-16T04:42:16.248Z,100.00
2022-11-16T04:47:44.043Z,100.00
2022-11-16T04:50:34.014Z,100.00
2022-11-16T04:53:24.200Z,100.00
2022-11-16T04:59:00.830Z,100.00
2022-11-16T05:04:27.632Z,100.00
2022-11-16T05:10:04.675Z,100.00
2022-11-16T05:12:54.742Z,100.00
2022-11-16T05:18:30.882Z,100.00
2022-11-16T05:21:19.464Z,100.00
2022-11-16T05:24:26.347Z,100.00
2022-11-16T05:27:17.312Z,100.00
2022-11-16T05:32:55.070Z,100.00
2022-11-16T05:41:45.494Z,100.00
2022-11-16T05:47:22.289Z,100.00
2022-11-16T05:55:41.723Z,100.00
2022-11-16T06:01:17.552Z,100.00
2022-11-16T06:06:51.599Z,100.00
2022-11-16T06:09:39.713Z,100.00
2022-11-16T06:15:14.253Z,100.00
2022-11-16T06:18:03.337Z,100.00
2022-11-16T06:23:39.419Z,100.00
2022-11-16T06:26:27.827Z,100.00
2022-11-16T06:35:05.149Z,100.00
2022-11-16T06:40:54.444Z,100.00
2022-11-16T06:43:43.869Z,100.00
2022-11-16T06:49:11.310Z,100.00
2022-11-16T06:54:40.241Z,100.00
2022-11-16T06:57:30.381Z,100.00
2022-11-16T07:03:05.015Z,100.00
2022-11-16T07:11:22.396Z,100.00
2022-11-16T07:16:57.957Z,100.00
2022-11-16T07:22:34.071Z,100.00
2022-11-16T07:28:06.691Z,100.00
2022-11-16T07:33:41.065Z,100.00
2022-11-16T07:36:29.775Z,100.00
2022-11-16T07:42:07.857Z,100.00
2022-11-16T07:47:41.303Z,100.00
2022-11-16T07:53:35.907Z,100.00
2022-11-16T07:56:24.827Z,100.00
2022-11-16T08:01:58.955Z,100.00
2022-11-16T08:07:35.153Z,100.00
2022-11-16T08:10:24.800Z,100.00
2022-11-16T08:13:13.314Z,100.00
2022-11-16T08:16:02.649Z,100.00
2022-11-16T08:18:50.778Z,100.00
2022-11-16T08:26:58.884Z,100.00
2022-11-16T08:32:35.419Z,100.00
2022-11-16T08:35:24.156Z,100.00
2022-11-16T08:40:55.181Z,100.00
2022-11-16T08:43:44.479Z,100.00
2022-11-16T08:49:10.664Z,100.00
2022-11-16T08:54:40.666Z,100.00
2022-11-16T09:00:21.588Z,100.00
2022-11-16T09:05:51.528Z,95.70
2022-11-16T09:11:27.755Z,93.40
2022-11-16T09:14:17.152Z,93.41
2022-11-16T09:17:05.656Z,91.42
2022-11-16T09:19:53.837Z,90.16
2022-11-16T09:22:54.869Z,88.37
2022-11-16T09:25:45.137Z,86.53
2022-11-16T09:31:24.745Z,84.88
2022-11-16T09:34:15.764Z,85.27
2022-11-16T09:37:04.279Z,85.06
2022-11-16T09:39:52.742Z,85.16
2022-11-16T09:42:48.480Z,84.19
2022-11-16T09:48:26.917Z,77.95
2022-11-16T09:51:16.675Z,79.44
2022-11-16T10:02:27.469Z,81.15
2022-11-16T10:08:01.177Z,80.54
2022-11-16T10:13:45.550Z,77.29
2022-11-16T10:19:26.719Z,74.99
2022-11-16T10:25:14.981Z,73.67
2022-11-16T10:28:13.987Z,72.62
2022-11-16T10:33:51.725Z,73.51
2022-11-16T10:39:21.547Z,73.47
2022-11-16T10:45:00.940Z,72.22
2022-11-16T10:50:54.902Z,71.28
2022-11-16T10:59:19.141Z,71.53
2022-11-16T11:05:12.944Z,71.94
2022-11-16T11:10:48.892Z,70.15
2022-11-16T11:16:25.046Z,67.83
2022-11-16T11:22:11.926Z,68.10
2022-11-16T11:27:50.628Z,69.54
2022-11-16T11:30:38.906Z,69.31
2022-11-16T11:33:28.311Z,70.21
2022-11-16T11:44:51.039Z,68.88
2022-11-16T11:48:00.838Z,71.09
2022-11-16T11:56:31.714Z,71.08
2022-11-16T11:59:23.030Z,70.79
2022-11-16T12:05:44.587Z,66.39
2022-11-16T12:08:52.678Z,67.52
2022-11-16T12:11:48.491Z,67.63
2022-11-16T12:14:51.444Z,69.68
2022-11-16T12:17:44.272Z,68.02
2022-11-16T12:20:37.323Z,65.84
2022-11-16T12:35:26.734Z,63.46
2022-11-16T12:42:03.253Z,62.28
2022-11-16T12:45:05.810Z,62.14
2022-11-16T12:50:56.939Z,62.44
2022-11-16T12:53:53.536Z,61.97
2022-11-16T13:02:49.031Z,61.71
2022-11-16T13:08:43.275Z,61.46
2022-11-16T13:14:24.433Z,62.17
2022-11-16T13:17:17.355Z,63.00
2022-11-16T13:22:56.176Z,62.98
2022-11-16T13:25:48.114Z,62.96
2022-11-16T13:31:29.485Z,62.38
2022-11-16T13:37:42.357Z,62.36
2022-11-16T13:40:32.383Z,62.21
2022-11-16T13:46:02.644Z,63.48
2022-11-16T13:48:50.992Z,64.88
2022-11-16T13:54:45.194Z,64.90
2022-11-16T13:57:32.794Z,64.66
2022-11-16T14:00:31.501Z,63.63
2022-11-16T14:06:50.234Z,64.21
2022-11-16T14:15:52.792Z,62.51
2022-11-16T14:21:32.717Z,62.62
2022-11-16T14:27:10.497Z,63.12
2022-11-16T14:32:48.129Z,62.46
2022-11-16T14:41:07.825Z,63.87
2022-11-16T14:46:45.237Z,65.17
2022-11-16T14:52:32.630Z,65.40
2022-11-16T14:58:20.361Z,66.22
2022-11-16T15:01:14.266Z,66.36
2022-11-16T15:06:53.040Z,68.52
2022-11-16T15:09:47.685Z,68.57
2022-11-16T15:12:46.374Z,69.50
2022-11-16T15:15:37.658Z,70.41
2022-11-16T15:18:25.977Z,72.17
2022-11-16T15:21:24.109Z,72.26
2022-11-16T15:24:29.769Z,72.59
2022-11-16T15:30:02.052Z,75.39
2022-11-16T15:32:52.567Z,76.17
2022-11-16T15:38:25.080Z,79.35
2022-11-16T15:41:13.483Z,80.40
2022-11-16T15:44:19.217Z,81.69
2022-11-16T15:49:40.255Z,84.15
2022-11-16T15:55:31.629Z,86.14
2022-11-16T15:58:24.517Z,86.24
2022-11-16T16:04:04.443Z,87.47
2022-11-16T16:09:42.662Z,88.56
2022-11-16T16:18:20.291Z,91.06
2022-11-16T16:23:56.523Z,92.19
2022-11-16T16:29:31.997Z,92.41
2022-11-16T16:35:08.872Z,91.88
2022-11-16T16:38:00.990Z,91.42
2022-11-16T16:43:36.303Z,90.98
2022-11-16T16:49:24.540Z,89.63
2022-11-16T16:54:56.843Z,88.53
2022-11-16T17:00:34.730Z,89.42
2022-11-16T17:03:22.797Z,89.83
2022-11-16T17:06:11.034Z,89.23
2022-11-16T17:09:01.848Z,88.84
2022-11-16T17:17:15.291Z,87.76
2022-11-16T17:22:53.735Z,87.29
2022-11-16T17:25:46.741Z,87.29
2022-11-16T17:28:37.156Z,87.61
2022-11-16T17:34:15.344Z,87.33
2022-11-16T17:39:50.253Z,87.90
2022-11-16T17:48:01.847Z,90.12
2022-11-16T17:50:50.253Z,90.83
2022-11-16T17:56:23.155Z,90.96
2022-11-16T18:01:58.509Z,91.52
2022-11-16T18:04:51.055Z,91.89
2022-11-16T18:07:38.624Z,92.47
2022-11-16T18:10:27.459Z,92.68
2022-11-16T18:13:17.322Z,93.29
2022-11-16T18:18:48.528Z,92.76
2022-11-16T18:21:41.631Z,92.67
2022-11-16T18:27:18.231Z,92.33
2022-11-16T18:30:08.551Z,92.46
2022-11-16T18:35:47.308Z,94.90
2022-11-16T18:41:19.712Z,96.66
2022-11-16T18:44:09.033Z,96.39
2022-11-16T18:49:45.109Z,96.60
2022-11-16T18:52:32.969Z,96.67
2022-11-16T18:55:23.130Z,96.94
2022-11-16T19:00:55.737Z,98.01
2022-11-16T19:06:33.197Z,99.08
2022-11-16T19:14:55.146Z,100.00
2022-11-16T19:20:21.693Z,100.00
2022-11-16T19:28:46.004Z,100.00
2022-11-16T19:34:16.189Z,100.00
2022-11-16T19:39:53.871Z,100.00
2022-11-16T19:45:32.705Z,100.00
2022-11-16T19:51:10.902Z,100.00
2022-11-16T19:54:00.443Z,100.00
2022-11-16T19:59:33.941Z,100.00
2022-11-16T20:05:01.383Z,100.00
2022-11-16T20:10:38.189Z,100.00
2022-11-16T20:13:29.347Z,100.00
2022-11-16T20:19:25.356Z,100.00
2022-11-16T20:25:02.359Z,100.00
2022-11-16T20:30:30.227Z,100.00
2022-11-16T20:36:05.851Z,100.00
2022-11-16T20:41:43.975Z,100.00
2022-11-16T20:47:14.434Z,100.00
2022-11-16T20:52:52.993Z,100.00
2022-11-16T20:55:42.503Z,100.00
2022-11-16T21:01:35.552Z,100.00
2022-11-16T21:10:19.423Z,100.00
2022-11-16T21:16:12.304Z,100.00
2022-11-16T21:19:00.784Z,100.00
2022-11-16T21:21:49.960Z,100.00
2022-11-16T21:24:40.723Z,100.00
2022-11-16T21:27:29.044Z,100.00
2022-11-16T21:30:18.224Z,100.00
2022-11-16T21:33:06.852Z,100.00
2022-11-16T21:35:55.539Z,100.00
2022-11-16T21:38:43.867Z,100.00
2022-11-16T21:41:32.400Z,100.00
2022-11-16T21:52:51.504Z,100.00
2022-11-16T21:59:00.872Z,100.00
2022-11-16T22:02:05.135Z,100.00
2022-11-16T22:05:14.141Z,100.00
2022-11-16T22:10:56.318Z,100.00
2022-11-16T22:13:45.713Z,100.00
2022-11-16T22:22:38.158Z,100.00
2022-11-16T22:25:26.566Z,100.00
2022-11-16T22:31:18.066Z,100.00
2022-11-16T22:34:08.450Z,100.00
2022-11-16T22:36:56.991Z,100.00
2022-11-16T22:39:46.155Z,100.00
2022-11-16T22:42:34.709Z,100.00
2022-11-16T22:45:23.851Z,100.00
2022-11-16T22:51:04.972Z,100.00
2022-11-16T22:53:55.869Z,100.00
2022-11-16T22:56:44.151Z,100.00
2022-11-16T23:02:23.808Z,100.00
2022-11-16T23:05:12.942Z,100.00
2022-11-16T23:11:09.877Z,100.00
2022-11-16T23:14:16.356Z,100.00
2022-11-16T23:17:05.773Z,100.00
2022-11-16T23:20:17.309Z,100.00
2022-11-16T23:26:07.122Z,100.00
2022-11-16T23:31:36.548Z,100.00
2022-11-16T23:37:09.663Z,100.00
2022-11-16T23:43:00.672Z,100.00
2022-11-16T23:45:49.312Z,100.00
2022-11-16T23:48:37.463Z,100.00
2022-11-16T23:54:06.604Z,100.00
2022-11-16T23:56:55.356Z,100.00
